sensor_id;sensor_type;location;lat;lon;timestamp;pressure;altitude;pressure_sealevel;temperature;humidity
64713;BME280;51140;45.340;5.980;2022-07-17T00:01:06;98619.84;;;24.75;100.00
64713;BME280;51140;45.340;5.980;2022-07-17T00:03:32;98606.69;;;24.73;100.00
64713;BME280;51140;45.340;5.980;2022-07-17T00:05:57;98621.00;;;24.72;100.00
64713;BME280;51140;45.340;5.980;2022-07-17T00:08:23;98609.78;;;24.60;100.00
64713;BME280;51140;45.340;5.980;2022-07-17T00:10:48;98629.44;;;24.85;100.00
64713;BME280;51140;45.340;5.980;2022-07-17T00:13:14;98625.53;;;24.80;100.00
64713;BME280;51140;45.340;5.980;2022-07-17T00:15:39;98622.56;;;24.57;100.00
64713;BME280;51140;45.340;5.980;2022-07-17T00:18:05;98622.47;;;24.66;100.00
64713;BME280;51140;45.340;5.980;2022-07-17T00:20:32;98624.88;;;24.78;100.00
64713;BME280;51140;45.340;5.980;2022-07-17T00:22:57;98625.47;;;24.89;100.00
64713;BME280;51140;45.340;5.980;2022-07-17T00:25:23;98630.78;;;24.63;100.00
64713;BME280;51140;45.340;5.980;2022-07-17T00:27:49;98624.19;;;24.50;100.00
64713;BME280;51140;45.340;5.980;2022-07-17T00:30:15;98631.38;;;24.31;100.00
64713;BME280;51140;45.340;5.980;2022-07-17T00:32:41;98631.81;;;24.45;100.00
64713;BME280;51140;45.340;5.980;2022-07-17T00:35:07;98633.09;;;24.41;100.00
64713;BME280;51140;45.340;5.980;2022-07-17T00:37:45;98636.38;;;24.34;100.00
64713;BME280;51140;45.340;5.980;2022-07-17T00:40:18;98633.34;;;24.29;100.00
64713;BME280;51140;45.340;5.980;2022-07-17T00:42:44;98637.06;;;24.19;100.00
64713;BME280;51140;45.340;5.980;2022-07-17T00:45:10;98641.69;;;23.99;100.00
64713;BME280;51140;45.340;5.980;2022-07-17T00:50:24;98640.31;;;23.77;100.00
64713;BME280;51140;45.340;5.980;2022-07-17T00:52:50;98650.81;;;23.79;100.00
64713;BME280;51140;45.340;5.980;2022-07-17T00:55:17;98645.94;;;23.92;100.00
64713;BME280;51140;45.340;5.980;2022-07-17T00:57:45;98647.75;;;23.73;100.00
64713;BME280;51140;45.340;5.980;2022-07-17T01:00:11;98649.81;;;23.62;100.00
64713;BME280;51140;45.340;5.980;2022-07-17T01:02:38;98650.66;;;23.62;100.00
64713;BME280;51140;45.340;5.980;2022-07-17T01:05:04;98653.72;;;23.58;100.00
64713;BME280;51140;45.340;5.980;2022-07-17T01:07:30;98655.13;;;23.62;100.00
64713;BME280;51140;45.340;5.980;2022-07-17T01:09:55;98652.44;;;23.34;100.00
64713;BME280;51140;45.340;5.980;2022-07-17T01:12:22;98653.81;;;23.38;100.00
64713;BME280;51140;45.340;5.980;2022-07-17T01:14:49;98651.84;;;23.40;100.00
64713;BME280;51140;45.340;5.980;2022-07-17T01:17:15;98659.75;;;23.23;100.00
64713;BME280;51140;45.340;5.980;2022-07-17T01:19:40;98653.88;;;23.19;100.00
64713;BME280;51140;45.340;5.980;2022-07-17T01:22:06;98654.69;;;23.29;100.00
64713;BME280;51140;45.340;5.980;2022-07-17T01:24:31;98654.91;;;23.08;100.00
64713;BME280;51140;45.340;5.980;2022-07-17T01:26:57;98654.22;;;23.06;100.00
64713;BME280;51140;45.340;5.980;2022-07-17T01:29:23;98657.34;;;22.92;100.00
64713;BME280;51140;45.340;5.980;2022-07-17T01:31:48;98651.78;;;22.86;100.00
64713;BME280;51140;45.340;5.980;2022-07-17T01:34:14;98654.13;;;22.79;100.00
64713;BME280;51140;45.340;5.980;2022-07-17T01:36:40;98647.31;;;22.86;100.00
64713;BME280;51140;45.340;5.980;2022-07-17T01:39:06;98653.59;;;22.85;100.00
64713;BME280;51140;45.340;5.980;2022-07-17T01:41:32;98650.06;;;22.94;100.00
64713;BME280;51140;45.340;5.980;2022-07-17T01:43:57;98648.50;;;23.01;100.00
64713;BME280;51140;45.340;5.980;2022-07-17T01:46:24;98657.75;;;22.78;100.00
64713;BME280;51140;45.340;5.980;2022-07-17T01:48:50;98649.38;;;22.73;100.00
64713;BME280;51140;45.340;5.980;2022-07-17T01:51:16;98662.25;;;22.87;100.00
64713;BME280;51140;45.340;5.980;2022-07-17T01:53:42;98655.72;;;22.81;100.00
64713;BME280;51140;45.340;5.980;2022-07-17T01:56:07;98651.78;;;22.66;100.00
64713;BME280;51140;45.340;5.980;2022-07-17T01:58:33;98646.03;;;22.71;100.00
64713;BME280;51140;45.340;5.980;2022-07-17T02:00:59;98642.94;;;22.75;100.00
64713;BME280;51140;45.340;5.980;2022-07-17T02:03:24;98636.97;;;22.64;100.00
64713;BME280;51140;45.340;5.980;2022-07-17T02:05:50;98649.72;;;22.50;100.00
64713;BME280;51140;45.340;5.980;2022-07-17T02:08:15;98648.44;;;22.64;100.00
64713;BME280;51140;45.340;5.980;2022-07-17T02:10:41;98650.28;;;22.44;100.00
64713;BME280;51140;45.340;5.980;2022-07-17T02:13:06;98653.78;;;22.45;100.00
64713;BME280;51140;45.340;5.980;2022-07-17T02:15:32;98651.28;;;22.43;100.00
64713;BME280;51140;45.340;5.980;2022-07-17T02:17:57;98656.56;;;22.53;100.00
64713;BME280;51140;45.340;5.980;2022-07-17T02:20:23;98652.25;;;22.42;100.00
64713;BME280;51140;45.340;5.980;2022-07-17T02:22:49;98657.44;;;22.44;100.00
64713;BME280;51140;45.340;5.980;2022-07-17T02:25:14;98655.72;;;22.52;100.00
64713;BME280;51140;45.340;5.980;2022-07-17T02:27:40;98645.53;;;22.48;100.00
64713;BME280;51140;45.340;5.980;2022-07-17T02:30:11;98655.59;;;22.35;100.00
64713;BME280;51140;45.340;5.980;2022-07-17T02:32:37;98650.28;;;22.44;100.00
64713;BME280;51140;45.340;5.980;2022-07-17T02:35:04;98648.75;;;22.32;100.00
64713;BME280;51140;45.340;5.980;2022-07-17T02:37:29;98652.53;;;22.20;100.00
64713;BME280;51140;45.340;5.980;2022-07-17T02:39:55;98656.03;;;22.20;100.00
64713;BME280;51140;45.340;5.980;2022-07-17T02:42:25;98655.03;;;22.31;100.00
64713;BME280;51140;45.340;5.980;2022-07-17T02:44:51;98657.16;;;22.18;100.00
64713;BME280;51140;45.340;5.980;2022-07-17T02:47:29;98652.53;;;22.20;100.00
64713;BME280;51140;45.340;5.980;2022-07-17T02:49:55;98660.03;;;21.96;100.00
64713;BME280;51140;45.340;5.980;2022-07-17T02:52:21;98655.28;;;21.99;100.00
64713;BME280;51140;45.340;5.980;2022-07-17T02:54:46;98663.56;;;22.06;100.00
64713;BME280;51140;45.340;5.980;2022-07-17T02:57:12;98664.97;;;22.10;100.00
64713;BME280;51140;45.340;5.980;2022-07-17T02:59:38;98660.34;;;22.22;100.00
64713;BME280;51140;45.340;5.980;2022-07-17T03:02:04;98658.97;;;22.08;100.00
64713;BME280;51140;45.340;5.980;2022-07-17T03:04:29;98654.06;;;22.13;100.00
64713;BME280;51140;45.340;5.980;2022-07-17T03:06:55;98654.06;;;22.23;100.00
64713;BME280;51140;45.340;5.980;2022-07-17T03:09:20;98654.91;;;22.33;100.00
64713;BME280;51140;45.340;5.980;2022-07-17T03:11:46;98660.50;;;22.20;100.00
64713;BME280;51140;45.340;5.980;2022-07-17T03:14:11;98663.56;;;22.15;100.00
64713;BME280;51140;45.340;5.980;2022-07-17T03:16:37;98662.25;;;22.00;100.00
64713;BME280;51140;45.340;5.980;2022-07-17T03:19:02;98668.25;;;21.73;100.00
64713;BME280;51140;45.340;5.980;2022-07-17T03:21:28;98667.00;;;21.77;100.00
64713;BME280;51140;45.340;5.980;2022-07-17T03:23:53;98663.06;;;21.72;100.00
64713;BME280;51140;45.340;5.980;2022-07-17T03:26:18;98662.66;;;21.67;100.00
64713;BME280;51140;45.340;5.980;2022-07-17T03:28:44;98660.13;;;21.65;100.00
64713;BME280;51140;45.340;5.980;2022-07-17T03:31:09;98658.69;;;21.61;100.00
64713;BME280;51140;45.340;5.980;2022-07-17T03:33:34;98661.19;;;21.53;100.00
64713;BME280;51140;45.340;5.980;2022-07-17T03:36:00;98653.16;;;21.64;100.00
64713;BME280;51140;45.340;5.980;2022-07-17T03:38:25;98665.66;;;21.52;100.00
64713;BME280;51140;45.340;5.980;2022-07-17T03:40:51;98659.94;;;21.57;100.00
64713;BME280;51140;45.340;5.980;2022-07-17T03:43:16;98672.63;;;21.53;100.00
64713;BME280;51140;45.340;5.980;2022-07-17T03:45:42;98671.38;;;21.48;100.00
64713;BME280;51140;45.340;5.980;2022-07-17T03:48:08;98671.09;;;21.51;100.00
64713;BME280;51140;45.340;5.980;2022-07-17T03:50:33;98664.13;;;21.50;100.00
64713;BME280;51140;45.340;5.980;2022-07-17T03:52:59;98668.16;;;21.44;100.00
64713;BME280;51140;45.340;5.980;2022-07-17T03:55:25;98664.66;;;21.34;100.00
64713;BME280;51140;45.340;5.980;2022-07-17T03:57:50;98674.72;;;21.19;100.00
64713;BME280;51140;45.340;5.980;2022-07-17T04:00:17;98670.25;;;21.41;100.00
64713;BME280;51140;45.340;5.980;2022-07-17T04:02:42;98674.03;;;21.48;100.00
64713;BME280;51140;45.340;5.980;2022-07-17T04:05:09;98688.13;;;21.58;100.00
64713;BME280;51140;45.340;5.980;2022-07-17T04:07:39;98689.91;;;21.38;100.00
64713;BME280;51140;45.340;5.980;2022-07-17T04:10:05;98694.59;;;21.25;100.00
64713;BME280;51140;45.340;5.980;2022-07-17T04:12:31;98704.78;;;21.09;100.00
64713;BME280;51140;45.340;5.980;2022-07-17T04:14:57;98708.41;;;21.08;100.00
64713;BME280;51140;45.340;5.980;2022-07-17T04:17:22;98706.91;;;21.36;100.00
64713;BME280;51140;45.340;5.980;2022-07-17T04:19:48;98717.28;;;21.48;100.00
64713;BME280;51140;45.340;5.980;2022-07-17T04:22:14;98710.75;;;21.01;100.00
64713;BME280;51140;45.340;5.980;2022-07-17T04:24:40;98709.16;;;20.89;100.00
64713;BME280;51140;45.340;5.980;2022-07-17T04:27:06;98707.75;;;20.85;100.00
64713;BME280;51140;45.340;5.980;2022-07-17T04:29:32;98713.94;;;20.95;100.00
64713;BME280;51140;45.340;5.980;2022-07-17T04:31:57;98712.63;;;20.89;100.00
64713;BME280;51140;45.340;5.980;2022-07-17T04:34:23;98709.34;;;20.97;100.00
64713;BME280;51140;45.340;5.980;2022-07-17T04:36:48;98709.34;;;20.97;100.00
64713;BME280;51140;45.340;5.980;2022-07-17T04:39:14;98710.94;;;21.09;100.00
64713;BME280;51140;45.340;5.980;2022-07-17T04:41:39;98713.13;;;21.04;100.00
64713;BME280;51140;45.340;5.980;2022-07-17T04:44:05;98709.78;;;21.02;100.00
64713;BME280;51140;45.340;5.980;2022-07-17T04:46:30;98713.00;;;21.26;100.00
64713;BME280;51140;45.340;5.980;2022-07-17T04:48:55;98719.03;;;21.29;100.00
64713;BME280;51140;45.340;5.980;2022-07-17T04:51:21;98714.69;;;21.27;100.00
64713;BME280;51140;45.340;5.980;2022-07-17T04:53:46;98713.31;;;21.12;100.00
64713;BME280;51140;45.340;5.980;2022-07-17T04:56:11;98725.97;;;21.09;100.00
64713;BME280;51140;45.340;5.980;2022-07-17T04:58:37;98722.06;;;21.03;100.00
64713;BME280;51140;45.340;5.980;2022-07-17T05:01:02;98719.66;;;21.00;100.00
64713;BME280;51140;45.340;5.980;2022-07-17T05:03:28;98718.44;;;21.04;100.00
64713;BME280;51140;45.340;5.980;2022-07-17T05:05:53;98713.13;;;21.04;100.00
64713;BME280;51140;45.340;5.980;2022-07-17T05:08:19;98718.75;;;21.11;100.00
64713;BME280;51140;45.340;5.980;2022-07-17T05:10:45;98717.28;;;20.97;100.00
64713;BME280;51140;45.340;5.980;2022-07-17T05:13:10;98712.56;;;21.01;100.00
64713;BME280;51140;45.340;5.980;2022-07-17T05:15:37;98722.00;;;20.93;100.00
64713;BME280;51140;45.340;5.980;2022-07-17T05:18:03;98721.25;;;21.12;100.00
64713;BME280;51140;45.340;5.980;2022-07-17T05:20:29;98717.63;;;21.13;100.00
64713;BME280;51140;45.340;5.980;2022-07-17T05:22:54;98718.44;;;21.04;100.00
64713;BME280;51140;45.340;5.980;2022-07-17T05:25:19;98722.66;;;21.16;100.00
64713;BME280;51140;45.340;5.980;2022-07-17T05:27:45;98729.66;;;21.17;100.00
64713;BME280;51140;45.340;5.980;2022-07-17T05:30:10;98731.44;;;21.28;100.00
64713;BME280;51140;45.340;5.980;2022-07-17T05:32:35;98739.94;;;21.32;100.00
64713;BME280;51140;45.340;5.980;2022-07-17T05:35:01;98740.25;;;21.38;100.00
64713;BME280;51140;45.340;5.980;2022-07-17T05:37:26;98738.66;;;21.26;100.00
64713;BME280;51140;45.340;5.980;2022-07-17T05:39:52;98734.50;;;21.33;100.00
64713;BME280;51140;45.340;5.980;2022-07-17T05:42:17;98735.50;;;21.32;100.00
64713;BME280;51140;45.340;5.980;2022-07-17T05:44:42;98740.47;;;21.25;100.00
64713;BME280;51140;45.340;5.980;2022-07-17T05:47:08;98737.16;;;21.33;100.00
64713;BME280;51140;45.340;5.980;2022-07-17T05:49:33;98736.75;;;21.38;100.00
64713;BME280;51140;45.340;5.980;2022-07-17T05:51:58;98747.66;;;21.44;100.00
64713;BME280;51140;45.340;5.980;2022-07-17T05:54:24;98744.28;;;21.63;100.00
64713;BME280;51140;45.340;5.980;2022-07-17T05:56:49;98747.91;;;21.62;100.00
64713;BME280;51140;45.340;5.980;2022-07-17T05:59:15;98745.75;;;21.56;100.00
64713;BME280;51140;45.340;5.980;2022-07-17T06:01:40;98743.66;;;21.50;100.00
64713;BME280;51140;45.340;5.980;2022-07-17T06:04:07;98743.94;;;21.56;100.00
64713;BME280;51140;45.340;5.980;2022-07-17T06:06:32;98746.47;;;21.58;100.00
64713;BME280;51140;45.340;5.980;2022-07-17T06:08:57;98743.25;;;21.54;100.00
64713;BME280;51140;45.340;5.980;2022-07-17T06:11:23;98754.41;;;21.58;100.00
64713;BME280;51140;45.340;5.980;2022-07-17T06:13:48;98745.81;;;21.66;100.00
64713;BME280;51140;45.340;5.980;2022-07-17T06:16:14;98749.50;;;21.84;100.00
64713;BME280;51140;45.340;5.980;2022-07-17T06:18:39;98749.75;;;21.81;100.00
64713;BME280;51140;45.340;5.980;2022-07-17T06:21:05;98753.13;;;21.83;100.00
64713;BME280;51140;45.340;5.980;2022-07-17T06:23:30;98756.91;;;21.90;100.00
64713;BME280;51140;45.340;5.980;2022-07-17T06:25:55;98759.41;;;21.82;100.00
64713;BME280;51140;45.340;5.980;2022-07-17T06:28:21;98757.59;;;21.82;100.00
64713;BME280;51140;45.340;5.980;2022-07-17T06:30:47;98756.88;;;21.80;100.00
64713;BME280;51140;45.340;5.980;2022-07-17T06:33:13;98758.69;;;21.80;100.00
64713;BME280;51140;45.340;5.980;2022-07-17T06:35:38;98769.16;;;21.72;100.00
64713;BME280;51140;45.340;5.980;2022-07-17T06:38:04;98767.75;;;21.77;100.00
64713;BME280;51140;45.340;5.980;2022-07-17T06:40:30;98768.16;;;21.73;100.00
64713;BME280;51140;45.340;5.980;2022-07-17T06:42:55;98761.31;;;21.70;100.00
64713;BME280;51140;45.340;5.980;2022-07-17T06:45:20;98775.75;;;21.87;100.00
64713;BME280;51140;45.340;5.980;2022-07-17T06:47:46;98769.06;;;21.93;100.00
64713;BME280;51140;45.340;5.980;2022-07-17T06:50:11;98769.69;;;22.06;100.00
64713;BME280;51140;45.340;5.980;2022-07-17T06:52:37;98777.16;;;22.01;100.00
64713;BME280;51140;45.340;5.980;2022-07-17T06:55:02;98777.66;;;22.15;100.00
64713;BME280;51140;45.340;5.980;2022-07-17T06:57:28;98778.81;;;22.23;100.00
64713;BME280;51140;45.340;5.980;2022-07-17T06:59:53;98775.16;;;22.14;100.00
64713;BME280;51140;45.340;5.980;2022-07-17T07:02:19;98777.97;;;22.41;100.00
64713;BME280;51140;45.340;5.980;2022-07-17T07:04:44;98776.88;;;22.44;100.00
64713;BME280;51140;45.340;5.980;2022-07-17T07:07:10;98774.31;;;23.20;100.00
64713;BME280;51140;45.340;5.980;2022-07-17T07:09:36;98771.59;;;22.92;100.00
64713;BME280;51140;45.340;5.980;2022-07-17T07:12:01;98773.16;;;22.85;100.00
64713;BME280;51140;45.340;5.980;2022-07-17T07:14:27;98776.63;;;22.95;100.00
64713;BME280;51140;45.340;5.980;2022-07-17T07:16:52;98768.16;;;23.29;100.00
64713;BME280;51140;45.340;5.980;2022-07-17T07:19:17;98768.44;;;24.27;100.00
64713;BME280;51140;45.340;5.980;2022-07-17T07:21:43;98765.88;;;26.43;100.00
64713;BME280;51140;45.340;5.980;2022-07-17T07:24:08;98770.34;;;26.34;100.00
64713;BME280;51140;45.340;5.980;2022-07-17T07:26:33;98771.28;;;31.56;100.00
64713;BME280;51140;45.340;5.980;2022-07-17T07:28:59;98771.41;;;29.54;100.00
64713;BME280;51140;45.340;5.980;2022-07-17T07:31:24;98771.84;;;28.06;100.00
64713;BME280;51140;45.340;5.980;2022-07-17T07:33:50;98767.28;;;31.17;100.00
64713;BME280;51140;45.340;5.980;2022-07-17T07:36:15;98780.94;;;37.25;82.65
64713;BME280;51140;45.340;5.980;2022-07-17T07:38:40;98790.59;;;39.56;68.82
64713;BME280;51140;45.340;5.980;2022-07-17T07:41:06;98787.84;;;39.72;65.52
64713;BME280;51140;45.340;5.980;2022-07-17T07:43:31;98791.38;;;40.60;62.06
64713;BME280;51140;45.340;5.980;2022-07-17T07:45:57;98793.31;;;42.91;53.22
64713;BME280;51140;45.340;5.980;2022-07-17T07:48:23;98792.94;;;42.47;50.92
64713;BME280;51140;45.340;5.980;2022-07-17T07:50:48;98789.72;;;43.01;48.24
64713;BME280;51140;45.340;5.980;2022-07-17T07:53:14;98793.03;;;42.93;47.74
64713;BME280;51140;45.340;5.980;2022-07-17T07:55:39;98784.34;;;43.96;45.65
64713;BME280;51140;45.340;5.980;2022-07-17T07:58:10;98787.75;;;43.62;48.36
64713;BME280;51140;45.340;5.980;2022-07-17T08:00:37;98788.03;;;43.66;42.68
64713;BME280;51140;45.340;5.980;2022-07-17T08:03:03;98783.28;;;45.29;40.87
64713;BME280;51140;45.340;5.980;2022-07-17T08:05:30;98792.00;;;46.32;39.73
64713;BME280;51140;45.340;5.980;2022-07-17T08:07:56;98785.22;;;45.29;38.26
64713;BME280;51140;45.340;5.980;2022-07-17T08:10:21;98782.94;;;44.19;39.79
64713;BME280;51140;45.340;5.980;2022-07-17T08:12:47;98773.56;;;45.66;39.07
64713;BME280;51140;45.340;5.980;2022-07-17T08:15:17;98779.09;;;45.03;39.37
64713;BME280;51140;45.340;5.980;2022-07-17T08:17:44;98779.25;;;45.94;36.70
64713;BME280;51140;45.340;5.980;2022-07-17T08:20:09;98776.66;;;46.26;36.07
64713;BME280;51140;45.340;5.980;2022-07-17T08:22:35;98770.06;;;45.55;35.61
64713;BME280;51140;45.340;5.980;2022-07-17T08:25:00;98771.00;;;45.94;38.73
64713;BME280;51140;45.340;5.980;2022-07-17T08:27:26;98775.34;;;46.00;35.91
64713;BME280;51140;45.340;5.980;2022-07-17T08:29:51;98766.78;;;46.63;38.31
64713;BME280;51140;45.340;5.980;2022-07-17T08:32:16;98777.91;;;47.55;36.32
64713;BME280;51140;45.340;5.980;2022-07-17T08:34:42;98777.38;;;48.35;33.83
64713;BME280;51140;45.340;5.980;2022-07-17T08:37:07;98775.03;;;46.25;34.12
64713;BME280;51140;45.340;5.980;2022-07-17T08:39:32;98768.13;;;46.84;38.21
64713;BME280;51140;45.340;5.980;2022-07-17T08:41:58;98774.16;;;47.19;34.48
64713;BME280;51140;45.340;5.980;2022-07-17T08:44:23;98768.56;;;46.91;35.60
64713;BME280;51140;45.340;5.980;2022-07-17T08:46:50;98771.88;;;47.81;32.94
64713;BME280;51140;45.340;5.980;2022-07-17T08:49:20;98776.38;;;46.65;32.21
64713;BME280;51140;45.340;5.980;2022-07-17T08:51:47;98775.53;;;46.27;34.23
64713;BME280;51140;45.340;5.980;2022-07-17T08:54:12;98768.44;;;46.45;34.37
64713;BME280;51140;45.340;5.980;2022-07-17T08:56:38;98768.56;;;46.54;34.42
64713;BME280;51140;45.340;5.980;2022-07-17T08:59:04;98773.72;;;47.71;33.27
64713;BME280;51140;45.340;5.980;2022-07-17T09:01:29;98777.22;;;48.04;31.79
64713;BME280;51140;45.340;5.980;2022-07-17T09:03:55;98781.88;;;47.63;33.95
64713;BME280;51140;45.340;5.980;2022-07-17T09:06:21;98780.56;;;48.15;31.27
64713;BME280;51140;45.340;5.980;2022-07-17T09:08:48;98775.06;;;48.87;31.49
64713;BME280;51140;45.340;5.980;2022-07-17T09:11:13;98776.69;;;47.61;31.45
64713;BME280;51140;45.340;5.980;2022-07-17T09:13:45;98772.84;;;48.76;31.54
64713;BME280;51140;45.340;5.980;2022-07-17T09:16:12;98787.66;;;49.95;31.63
64713;BME280;51140;45.340;5.980;2022-07-17T09:18:52;98781.56;;;49.67;32.25
64713;BME280;51140;45.340;5.980;2022-07-17T09:21:24;98782.75;;;49.44;32.26
64713;BME280;51140;45.340;5.980;2022-07-17T09:26:25;98779.94;;;48.32;30.47
64713;BME280;51140;45.340;5.980;2022-07-17T09:28:52;98778.28;;;50.13;30.28
64713;BME280;51140;45.340;5.980;2022-07-17T09:31:25;98776.81;;;49.06;28.44
64713;BME280;51140;45.340;5.980;2022-07-17T09:33:51;98771.00;;;49.16;30.48
64713;BME280;51140;45.340;5.980;2022-07-17T09:36:16;98776.91;;;49.94;29.25
64713;BME280;51140;45.340;5.980;2022-07-17T09:38:42;98769.78;;;50.01;29.34
64713;BME280;51140;45.340;5.980;2022-07-17T09:43:47;98770.53;;;49.22;30.72
64713;BME280;51140;45.340;5.980;2022-07-17T09:46:18;98769.44;;;47.93;31.93
64713;BME280;51140;45.340;5.980;2022-07-17T09:48:47;98760.66;;;48.99;31.48
64713;BME280;51140;45.340;5.980;2022-07-17T09:51:26;98763.69;;;49.20;31.15
64713;BME280;51140;45.340;5.980;2022-07-17T09:53:54;98764.44;;;50.13;30.62
64713;BME280;51140;45.340;5.980;2022-07-17T09:56:22;98758.06;;;50.04;29.64
64713;BME280;51140;45.340;5.980;2022-07-17T09:58:53;98759.94;;;49.16;31.36
64713;BME280;51140;45.340;5.980;2022-07-17T10:01:20;98755.72;;;49.89;32.01
64713;BME280;51140;45.340;5.980;2022-07-17T10:03:46;98753.00;;;51.10;29.37
64713;BME280;51140;45.340;5.980;2022-07-17T10:06:14;98753.34;;;51.08;28.37
64713;BME280;51140;45.340;5.980;2022-07-17T10:08:39;98748.63;;;50.05;28.48
64713;BME280;51140;45.340;5.980;2022-07-17T10:11:07;98743.72;;;51.06;28.73
64713;BME280;51140;45.340;5.980;2022-07-17T10:13:33;98754.81;;;49.63;29.86
64713;BME280;51140;45.340;5.980;2022-07-17T10:16:00;98736.66;;;49.87;29.75
64713;BME280;51140;45.340;5.980;2022-07-17T10:18:41;98740.38;;;49.66;28.25
64713;BME280;51140;45.340;5.980;2022-07-17T10:21:16;98744.63;;;49.41;29.96
64713;BME280;51140;45.340;5.980;2022-07-17T10:23:46;98740.81;;;50.59;28.19
64713;BME280;51140;45.340;5.980;2022-07-17T10:26:12;98733.09;;;49.47;30.25
64713;BME280;51140;45.340;5.980;2022-07-17T10:28:43;98736.91;;;50.60;27.87
64713;BME280;51140;45.340;5.980;2022-07-17T10:31:10;98727.28;;;50.32;29.87
64713;BME280;51140;45.340;5.980;2022-07-17T10:33:36;98725.97;;;50.29;29.47
64713;BME280;51140;45.340;5.980;2022-07-17T10:36:02;98720.34;;;49.77;29.11
64713;BME280;51140;45.340;5.980;2022-07-17T10:38:28;98734.31;;;50.38;28.84
64713;BME280;51140;45.340;5.980;2022-07-17T10:41:00;98727.63;;;51.37;27.26
64713;BME280;51140;45.340;5.980;2022-07-17T10:43:26;98722.56;;;50.41;29.34
64713;BME280;51140;45.340;5.980;2022-07-17T10:45:51;98715.28;;;49.71;30.10
64713;BME280;51140;45.340;5.980;2022-07-17T10:48:19;98717.47;;;50.86;29.19
64713;BME280;51140;45.340;5.980;2022-07-17T10:50:47;98719.59;;;50.63;27.90
64713;BME280;51140;45.340;5.980;2022-07-17T10:53:22;98721.47;;;51.15;27.35
64713;BME280;51140;45.340;5.980;2022-07-17T10:55:53;98717.25;;;49.87;29.63
64713;BME280;51140;45.340;5.980;2022-07-17T10:58:36;98722.00;;;49.47;28.43
64713;BME280;51140;45.340;5.980;2022-07-17T11:03:58;98707.19;;;50.78;30.00
64713;BME280;51140;45.340;5.980;2022-07-17T11:08:59;98705.88;;;49.10;31.39
64713;BME280;51140;45.340;5.980;2022-07-17T11:11:37;98687.28;;;43.82;43.33
64713;BME280;51140;45.340;5.980;2022-07-17T11:16:46;98684.25;;;39.77;54.63
64713;BME280;51140;45.340;5.980;2022-07-17T11:19:30;98676.03;;;38.95;61.73
64713;BME280;51140;45.340;5.980;2022-07-17T11:21:57;98689.56;;;38.90;68.38
64713;BME280;51140;45.340;5.980;2022-07-17T11:24:24;98684.25;;;39.00;65.22
64713;BME280;51140;45.340;5.980;2022-07-17T11:26:51;98692.69;;;38.82;64.83
64713;BME280;51140;45.340;5.980;2022-07-17T11:29:17;98686.84;;;38.28;69.87
64713;BME280;51140;45.340;5.980;2022-07-17T11:31:44;98681.41;;;37.71;70.44
64713;BME280;51140;45.340;5.980;2022-07-17T11:34:10;98675.72;;;36.67;70.10
64713;BME280;51140;45.340;5.980;2022-07-17T11:36:41;98675.66;;;37.84;64.53
64713;BME280;51140;45.340;5.980;2022-07-17T11:39:09;98678.97;;;37.86;72.33
64713;BME280;51140;45.340;5.980;2022-07-17T11:41:42;98674.66;;;37.50;75.15
64713;BME280;51140;45.340;5.980;2022-07-17T11:44:14;98667.84;;;37.36;75.03
64713;BME280;51140;45.340;5.980;2022-07-17T11:46:42;98665.84;;;37.31;72.38
64713;BME280;51140;45.340;5.980;2022-07-17T11:49:08;98658.41;;;36.92;77.44
64713;BME280;51140;45.340;5.980;2022-07-17T11:51:41;98657.34;;;37.05;78.30
64713;BME280;51140;45.340;5.980;2022-07-17T11:54:13;98656.84;;;37.19;75.92
64713;BME280;51140;45.340;5.980;2022-07-17T11:56:40;98661.00;;;36.98;73.38
64713;BME280;51140;45.340;5.980;2022-07-17T11:59:06;98658.75;;;37.07;80.23
64713;BME280;51140;45.340;5.980;2022-07-17T12:01:44;98656.28;;;37.06;73.61
64713;BME280;51140;45.340;5.980;2022-07-17T12:04:14;98654.88;;;37.26;79.18
64713;BME280;51140;45.340;5.980;2022-07-17T12:06:40;98648.50;;;36.86;75.01
64713;BME280;51140;45.340;5.980;2022-07-17T12:09:06;98646.72;;;36.80;76.64
64713;BME280;51140;45.340;5.980;2022-07-17T12:11:32;98647.34;;;36.40;76.33
64713;BME280;51140;45.340;5.980;2022-07-17T12:14:05;98648.44;;;36.51;77.48
64713;BME280;51140;45.340;5.980;2022-07-17T12:16:35;98638.34;;;36.81;75.26
64713;BME280;51140;45.340;5.980;2022-07-17T12:19:13;98640.25;;;36.92;81.87
64713;BME280;51140;45.340;5.980;2022-07-17T12:24:31;98639.75;;;37.30;77.48
64713;BME280;51140;45.340;5.980;2022-07-17T12:27:00;98639.97;;;37.06;73.02
64713;BME280;51140;45.340;5.980;2022-07-17T12:29:27;98638.88;;;36.48;75.50
64713;BME280;51140;45.340;5.980;2022-07-17T12:34:30;98630.06;;;37.11;76.93
64713;BME280;51140;45.340;5.980;2022-07-17T12:36:56;98623.34;;;37.25;76.59
64713;BME280;51140;45.340;5.980;2022-07-17T12:39:21;98617.94;;;36.90;75.22
64713;BME280;51140;45.340;5.980;2022-07-17T12:41:47;98620.50;;;36.62;80.75
64713;BME280;51140;45.340;5.980;2022-07-17T12:44:12;98616.72;;;36.98;80.80
64713;BME280;51140;45.340;5.980;2022-07-17T12:46:37;98620.44;;;37.44;86.10
64713;BME280;51140;45.340;5.980;2022-07-17T12:49:03;98620.16;;;36.93;72.21
64713;BME280;51140;45.340;5.980;2022-07-17T12:51:29;98617.09;;;37.25;77.03
64713;BME280;51140;45.340;5.980;2022-07-17T12:53:55;98615.56;;;36.94;79.53
64713;BME280;51140;45.340;5.980;2022-07-17T12:56:21;98616.03;;;36.91;71.74
64713;BME280;51140;45.340;5.980;2022-07-17T12:58:46;98608.81;;;36.96;88.76
64713;BME280;51140;45.340;5.980;2022-07-17T13:01:12;98616.34;;;37.18;77.21
64713;BME280;51140;45.340;5.980;2022-07-17T13:03:37;98609.28;;;37.05;83.08
64713;BME280;51140;45.340;5.980;2022-07-17T13:06:03;98614.00;;;37.33;75.97
64713;BME280;51140;45.340;5.980;2022-07-17T13:08:29;98601.25;;;36.98;76.28
64713;BME280;51140;45.340;5.980;2022-07-17T13:10:56;98602.91;;;36.99;74.42
64713;BME280;51140;45.340;5.980;2022-07-17T13:13:22;98591.94;;;36.94;79.57